createdAt,value
2023-04-08T00:00:50.791Z,100.00
2023-04-08T00:05:50.030Z,100.00
2023-04-08T00:08:18.226Z,100.00
2023-04-08T00:10:46.445Z,100.00
2023-04-08T00:13:15.207Z,100.00
2023-04-08T00:15:43.297Z,100.00
2023-04-08T00:18:11.849Z,100.00
2023-04-08T00:20:40.544Z,100.00
2023-04-08T00:23:08.848Z,100.00
2023-04-08T00:25:37.628Z,100.00
2023-04-08T00:28:05.897Z,100.00
2023-04-08T00:30:34.056Z,100.00
2023-04-08T00:33:03.138Z,100.00
2023-04-08T00:35:31.332Z,100.00
2023-04-08T00:38:01.154Z,100.00
2023-04-08T00:40:29.384Z,100.00
2023-04-08T00:42:58.786Z,100.00
2023-04-08T00:45:27.166Z,100.00
2023-04-08T00:47:55.424Z,100.00
2023-04-08T00:50:25.032Z,100.00
2023-04-08T00:52:53.737Z,100.00
2023-04-08T00:55:22.892Z,100.00
2023-04-08T00:57:51.260Z,100.00
2023-04-08T01:00:19.729Z,100.00
2023-04-08T01:02:58.065Z,100.00
2023-04-08T01:05:56.181Z,100.00
2023-04-08T01:08:27.983Z,100.00
2023-04-08T01:11:01.313Z,100.00
2023-04-08T01:13:35.454Z,100.00
2023-04-08T01:16:03.894Z,100.00
2023-04-08T01:18:35.673Z,100.00
2023-04-08T01:21:05.793Z,100.00
2023-04-08T01:23:54.930Z,100.00
2023-04-08T01:26:27.040Z,100.00
2023-04-08T01:28:58.336Z,100.00
2023-04-08T01:31:27.714Z,100.00
2023-04-08T01:33:58.020Z,100.00
2023-04-08T01:36:26.987Z,100.00
2023-04-08T01:38:55.529Z,100.00
2023-04-08T01:41:24.215Z,100.00
2023-04-08T01:43:54.859Z,100.00
2023-04-08T01:46:23.479Z,100.00
2023-04-08T01:48:52.918Z,100.00
2023-04-08T01:51:22.556Z,100.00
2023-04-08T01:53:51.864Z,100.00
2023-04-08T01:56:23.168Z,100.00
2023-04-08T01:58:54.311Z,100.00
2023-04-08T02:01:25.637Z,100.00
2023-04-08T02:03:57.730Z,100.00
2023-04-08T02:06:27.796Z,100.00
2023-04-08T02:08:56.930Z,100.00
2023-04-08T02:11:26.075Z,100.00
2023-04-08T02:13:54.616Z,100.00
2023-04-08T02:16:42.704Z,100.00
2023-04-08T02:19:24.656Z,100.00
2023-04-08T02:22:02.920Z,100.00
2023-04-08T02:24:33.512Z,100.00
2023-04-08T02:27:04.085Z,100.00
2023-04-08T02:29:35.087Z,100.00
2023-04-08T02:32:05.597Z,100.00
2023-04-08T02:34:35.964Z,100.00
2023-04-08T02:37:04.163Z,100.00
2023-04-08T02:39:34.032Z,100.00
2023-04-08T02:42:05.438Z,100.00
2023-04-08T02:44:34.054Z,100.00
2023-04-08T02:47:04.024Z,100.00
2023-04-08T02:49:32.049Z,100.00
2023-04-08T02:52:00.552Z,100.00
2023-04-08T02:54:29.169Z,100.00
2023-04-08T02:56:58.006Z,100.00
2023-04-08T02:59:26.044Z,100.00
2023-04-08T03:01:54.226Z,100.00
2023-04-08T03:04:22.307Z,100.00
2023-04-08T03:06:50.339Z,100.00
2023-04-08T03:09:18.465Z,100.00
2023-04-08T03:11:52.765Z,100.00
2023-04-08T03:14:21.705Z,100.00
2023-04-08T03:16:50.014Z,100.00
2023-04-08T03:19:18.091Z,100.00
2023-04-08T03:21:46.367Z,100.00
2023-04-08T03:24:14.693Z,100.00
2023-04-08T03:26:42.726Z,100.00
2023-04-08T03:29:11.090Z,100.00
2023-04-08T03:31:39.148Z,100.00
2023-04-08T03:34:07.354Z,100.00
2023-04-08T03:36:35.741Z,100.00
2023-04-08T03:39:04.353Z,100.00
2023-04-08T03:41:32.627Z,100.00
2023-04-08T03:44:01.350Z,100.00
2023-04-08T03:46:29.653Z,100.00
2023-04-08T03:48:57.873Z,100.00
2023-04-08T03:51:25.911Z,100.00
2023-04-08T03:53:54.121Z,100.00
2023-04-08T03:56:22.657Z,100.00
2023-04-08T03:58:51.122Z,100.00
2023-04-08T04:01:19.465Z,100.00
2023-04-08T04:03:48.086Z,100.00
2023-04-08T04:06:16.337Z,100.00
2023-04-08T04:08:44.701Z,100.00
2023-04-08T04:11:12.834Z,100.00
2023-04-08T04:13:41.128Z,100.00
2023-04-08T04:16:09.331Z,100.00
2023-04-08T04:18:37.792Z,100.00
2023-04-08T04:21:07.466Z,100.00
2023-04-08T04:23:35.723Z,100.00
2023-04-08T04:26:10.430Z,100.00
2023-04-08T04:28:39.181Z,100.00
2023-04-08T04:31:07.451Z,100.00
2023-04-08T04:33:35.951Z,100.00
2023-04-08T04:36:04.220Z,100.00
2023-04-08T04:38:33.099Z,100.00
2023-04-08T04:41:01.797Z,100.00
2023-04-08T04:43:30.337Z,100.00
2023-04-08T04:45:59.465Z,100.00
2023-04-08T04:48:28.222Z,100.00
2023-04-08T04:50:57.331Z,100.00
2023-04-08T04:53:25.590Z,100.00
2023-04-08T04:55:54.003Z,100.00
2023-04-08T04:58:22.335Z,100.00
2023-04-08T05:00:51.075Z,100.00
2023-04-08T05:03:19.406Z,100.00
2023-04-08T05:05:52.455Z,100.00
2023-04-08T05:08:22.102Z,100.00
2023-04-08T05:10:50.996Z,100.00
2023-04-08T05:13:19.293Z,100.00
2023-04-08T05:15:48.550Z,100.00
2023-04-08T05:18:17.171Z,100.00
2023-04-08T05:20:46.218Z,100.00
2023-04-08T05:23:14.298Z,100.00
2023-04-08T05:25:42.766Z,100.00
2023-04-08T05:28:11.391Z,100.00
2023-04-08T05:30:40.760Z,100.00
2023-04-08T05:33:08.903Z,100.00
2023-04-08T05:35:37.149Z,100.00
2023-04-08T05:38:05.799Z,100.00
2023-04-08T05:40:33.941Z,100.00
2023-04-08T05:43:02.059Z,100.00
2023-04-08T05:45:30.587Z,100.00
2023-04-08T05:47:59.287Z,100.00
2023-04-08T05:50:27.418Z,100.00
2023-04-08T05:52:55.649Z,100.00
2023-04-08T05:55:23.726Z,100.00
2023-04-08T05:57:51.808Z,100.00
2023-04-08T06:00:21.935Z,100.00
2023-04-08T06:02:50.497Z,100.00
2023-04-08T06:05:19.322Z,100.00
2023-04-08T06:07:47.490Z,100.00
2023-04-08T06:10:16.149Z,100.00
2023-04-08T06:12:44.391Z,100.00
2023-04-08T06:15:12.849Z,100.00
2023-04-08T06:17:40.997Z,100.00
2023-04-08T06:20:11.992Z,100.00
2023-04-08T06:22:40.042Z,100.00
2023-04-08T06:25:09.004Z,100.00
2023-04-08T06:27:37.091Z,100.00
2023-04-08T06:30:06.218Z,100.00
2023-04-08T06:32:34.352Z,100.00
2023-04-08T06:35:02.472Z,100.00
2023-04-08T06:37:30.599Z,100.00
2023-04-08T06:39:58.745Z,100.00
2023-04-08T06:42:27.383Z,100.00
2023-04-08T06:45:02.694Z,100.00
2023-04-08T06:47:30.859Z,100.00
2023-04-08T06:49:59.767Z,100.00
2023-04-08T06:52:28.279Z,100.00
2023-04-08T06:54:56.240Z,100.00
2023-04-08T06:57:24.850Z,100.00
2023-04-08T06:59:53.539Z,100.00
2023-04-08T07:02:22.336Z,100.00
2023-04-08T07:04:50.855Z,100.00
2023-04-08T07:07:19.283Z,100.00
2023-04-08T07:09:47.577Z,100.00
2023-04-08T07:12:16.186Z,100.00
2023-04-08T07:14:44.522Z,100.00
2023-04-08T07:17:12.687Z,100.00
2023-04-08T07:19:41.405Z,100.00
2023-04-08T07:22:09.482Z,100.00
2023-04-08T07:24:37.995Z,100.00
2023-04-08T07:27:07.239Z,100.00
2023-04-08T07:29:35.671Z,100.00
2023-04-08T07:32:03.794Z,100.00
2023-04-08T07:34:37.205Z,100.00
2023-04-08T07:37:05.391Z,100.00
2023-04-08T07:39:33.585Z,100.00
2023-04-08T07:42:01.528Z,100.00
2023-04-08T07:44:29.569Z,100.00
2023-04-08T07:46:57.783Z,100.00
2023-04-08T07:49:25.762Z,100.00
2023-04-08T07:51:53.950Z,100.00
2023-04-08T07:54:22.495Z,100.00
2023-04-08T07:56:50.754Z,100.00
2023-04-08T07:59:21.782Z,100.00
2023-04-08T08:01:50.390Z,100.00
2023-04-08T08:04:18.897Z,100.00
2023-04-08T08:06:47.773Z,100.00
2023-04-08T08:09:15.794Z,100.00
2023-04-08T08:11:44.031Z,100.00
2023-04-08T08:14:13.905Z,100.00
2023-04-08T08:16:42.865Z,100.00
2023-04-08T08:19:14.083Z,100.00
2023-04-08T08:21:43.166Z,100.00
2023-04-08T08:24:11.778Z,100.00
2023-04-08T08:26:45.209Z,100.00
2023-04-08T08:29:13.203Z,100.00
2023-04-08T08:31:41.506Z,100.00
2023-04-08T08:34:09.804Z,100.00
2023-04-08T08:36:37.934Z,100.00
2023-04-08T08:39:05.959Z,100.00
2023-04-08T08:41:39.168Z,100.00
2023-04-08T08:44:08.246Z,100.00
2023-04-08T08:46:36.362Z,100.00
2023-04-08T08:49:04.516Z,100.00
2023-04-08T08:51:34.771Z,100.00
2023-04-08T08:54:04.570Z,100.00
2023-04-08T08:56:35.677Z,100.00
2023-04-08T08:59:03.982Z,100.00
2023-04-08T09:01:34.448Z,100.00
2023-04-08T09:04:14.162Z,100.00
2023-04-08T09:06:44.138Z,100.00
2023-04-08T09:09:12.556Z,100.00
2023-04-08T09:11:43.194Z,100.00
2023-04-08T09:14:23.581Z,100.00
2023-04-08T09:16:52.993Z,100.00
2023-04-08T09:19:21.202Z,100.00
2023-04-08T09:22:07.524Z,100.00
2023-04-08T09:24:37.421Z,100.00
2023-04-08T09:27:06.190Z,100.00
2023-04-08T09:29:39.052Z,100.00
2023-04-08T09:32:09.806Z,100.00
2023-04-08T09:34:41.258Z,100.00
2023-04-08T09:37:09.613Z,100.00
2023-04-08T09:39:38.137Z,100.00
2023-04-08T09:42:11.424Z,100.00
2023-04-08T09:44:42.176Z,100.00
2023-04-08T09:47:20.325Z,100.00
2023-04-08T09:49:58.561Z,100.00
2023-04-08T09:52:35.604Z,100.00
2023-04-08T09:55:06.814Z,100.00
2023-04-08T09:57:46.867Z,100.00
2023-04-08T10:00:17.563Z,100.00
2023-04-08T10:02:53.523Z,100.00
2023-04-08T10:05:24.599Z,100.00
2023-04-08T10:07:54.193Z,100.00
2023-04-08T10:10:25.799Z,100.00
2023-04-08T10:12:54.212Z,100.00
2023-04-08T10:15:34.374Z,100.00
2023-04-08T10:18:25.836Z,100.00
2023-04-08T10:20:53.988Z,100.00
2023-04-08T10:23:59.860Z,100.00
2023-04-08T10:26:34.564Z,100.00
2023-04-08T10:29:17.982Z,100.00
2023-04-08T10:31:50.799Z,100.00
2023-04-08T10:34:20.510Z,100.00
2023-04-08T10:36:50.021Z,100.00
2023-04-08T10:39:18.326Z,100.00
2023-04-08T10:41:49.917Z,100.00
2023-04-08T10:44:31.471Z,100.00
2023-04-08T10:47:00.342Z,100.00
2023-04-08T10:49:34.761Z,100.00
2023-04-08T10:52:07.591Z,100.00
2023-04-08T10:54:37.321Z,100.00
2023-04-08T10:57:07.015Z,100.00
2023-04-08T10:59:35.140Z,100.00
2023-04-08T11:02:06.214Z,99.65
2023-04-08T11:04:43.134Z,98.62
2023-04-08T11:07:12.674Z,99.49
2023-04-08T11:09:44.697Z,100.00
2023-04-08T11:12:20.375Z,100.00
2023-04-08T11:14:59.764Z,100.00
2023-04-08T11:17:28.077Z,100.00
2023-04-08T11:19:57.985Z,99.47
2023-04-08T11:22:27.363Z,99.73
2023-04-08T11:24:57.657Z,99.99
2023-04-08T11:27:26.381Z,100.00
2023-04-08T11:29:57.803Z,100.00
2023-04-08T11:32:27.003Z,100.00
2023-04-08T11:34:55.084Z,100.00
2023-04-08T11:37:27.847Z,100.00
2023-04-08T11:39:57.634Z,100.00
2023-04-08T11:42:31.484Z,100.00
2023-04-08T11:44:59.973Z,100.00
2023-04-08T11:47:34.214Z,100.00
2023-04-08T11:50:02.803Z,100.00
2023-04-08T11:52:47.780Z,100.00
2023-04-08T11:55:42.381Z,100.00
2023-04-08T11:58:11.190Z,100.00
2023-04-08T12:00:39.500Z,98.69
2023-04-08T12:03:08.320Z,98.43
2023-04-08T12:05:37.118Z,96.43
2023-04-08T12:08:07.705Z,93.66
2023-04-08T12:10:36.211Z,89.46
2023-04-08T12:13:06.553Z,90.35
2023-04-08T12:15:34.683Z,91.58
2023-04-08T12:18:02.948Z,94.08
2023-04-08T12:20:31.016Z,94.71
2023-04-08T12:22:59.060Z,95.39
2023-04-08T12:25:29.082Z,95.49
2023-04-08T12:27:59.838Z,97.32
2023-04-08T12:30:29.341Z,99.69
2023-04-08T12:32:58.360Z,100.00
2023-04-08T12:35:26.387Z,100.00
2023-04-08T12:37:56.229Z,100.00
2023-04-08T12:40:24.286Z,100.00
2023-04-08T12:42:53.213Z,100.00
2023-04-08T12:45:21.260Z,100.00
2023-04-08T12:47:50.476Z,100.00
2023-04-08T12:50:18.629Z,100.00
2023-04-08T12:52:47.520Z,100.00
2023-04-08T12:55:16.431Z,100.00
2023-04-08T12:57:44.587Z,99.90
2023-04-08T13:00:14.114Z,100.00
2023-04-08T13:02:42.796Z,100.00
2023-04-08T13:05:11.085Z,100.00
2023-04-08T13:07:40.680Z,100.00
2023-04-08T13:10:09.308Z,100.00
2023-04-08T13:12:40.341Z,100.00
2023-04-08T13:15:10.698Z,100.00
2023-04-08T13:17:39.208Z,99.87
2023-04-08T13:20:10.611Z,100.00
2023-04-08T13:22:38.823Z,100.00
2023-04-08T13:25:07.734Z,99.62
2023-04-08T13:27:36.763Z,99.59
2023-04-08T13:30:05.547Z,99.98
2023-04-08T13:32:34.414Z,99.82
2023-04-08T13:35:03.059Z,100.00
2023-04-08T13:37:31.209Z,99.84
2023-04-08T13:39:59.359Z,99.24
2023-04-08T13:42:27.423Z,98.84
2023-04-08T13:44:55.362Z,99.53
2023-04-08T13:47:23.710Z,99.17
2023-04-08T13:49:53.446Z,96.22
2023-04-08T13:52:21.432Z,96.27
2023-04-08T13:54:49.415Z,96.80
2023-04-08T13:57:18.114Z,96.52
2023-04-08T13:59:46.190Z,95.81
2023-04-08T14:02:14.784Z,93.18
2023-04-08T14:04:46.797Z,94.44
2023-04-08T14:07:15.469Z,94.57
2023-04-08T14:09:44.763Z,93.68
2023-04-08T14:12:12.759Z,95.29
2023-04-08T14:14:41.314Z,96.04
2023-04-08T14:17:12.346Z,94.84
2023-04-08T14:19:40.704Z,94.14
2023-04-08T14:22:09.308Z,95.68
2023-04-08T14:24:37.401Z,97.04
2023-04-08T14:27:05.545Z,99.40
2023-04-08T14:29:33.602Z,99.12
2023-04-08T14:32:05.249Z,100.00
2023-04-08T14:34:33.242Z,100.00
2023-04-08T14:37:04.210Z,100.00
2023-04-08T14:39:32.656Z,100.00
2023-04-08T14:42:01.898Z,100.00
2023-04-08T14:44:30.653Z,100.00
2023-04-08T14:46:59.446Z,100.00
2023-04-08T14:49:27.702Z,100.00
2023-04-08T14:51:55.702Z,100.00
2023-04-08T14:54:25.823Z,100.00
2023-04-08T14:56:54.246Z,100.00
2023-04-08T14:59:23.554Z,100.00
2023-04-08T15:01:51.794Z,100.00
2023-04-08T15:04:20.102Z,100.00
2023-04-08T15:06:48.643Z,100.00
2023-04-08T15:09:18.040Z,100.00
2023-04-08T15:11:46.890Z,100.00
2023-04-08T15:14:18.129Z,100.00
2023-04-08T15:16:46.467Z,100.00
2023-04-08T15:19:14.487Z,100.00
2023-04-08T15:21:42.840Z,100.00
2023-04-08T15:24:11.485Z,100.00
2023-04-08T15:26:39.532Z,100.00
2023-04-08T15:29:07.685Z,100.00
2023-04-08T15:31:36.143Z,100.00
2023-04-08T15:34:04.799Z,100.00
2023-04-08T15:36:34.059Z,100.00
2023-04-08T15:39:02.926Z,100.00
2023-04-08T15:41:32.537Z,100.00
2023-04-08T15:44:02.020Z,100.00
2023-04-08T15:46:30.359Z,100.00
2023-04-08T15:49:01.261Z,100.00
2023-04-08T15:51:33.180Z,100.00
2023-04-08T15:54:01.656Z,100.00
2023-04-08T15:56:29.792Z,100.00
2023-04-08T15:58:58.475Z,100.00
2023-04-08T16:01:28.602Z,100.00
2023-04-08T16:03:57.584Z,100.00
2023-04-08T16:06:27.235Z,100.00
2023-04-08T16:08:56.785Z,100.00
2023-04-08T16:11:25.614Z,100.00
2023-04-08T16:16:28.968Z,100.00
2023-04-08T16:18:57.624Z,100.00
2023-04-08T16:21:26.070Z,100.00
2023-04-08T16:23:54.428Z,100.00
2023-04-08T16:26:24.284Z,100.00
2023-04-08T16:28:53.212Z,100.00
2023-04-08T16:31:21.886Z,100.00
2023-04-08T16:33:51.974Z,100.00
2023-04-08T16:36:20.354Z,100.00
2023-04-08T16:38:50.145Z,100.00
2023-04-08T16:41:19.687Z,100.00
2023-04-08T16:43:48.857Z,100.00
2023-04-08T16:46:20.584Z,100.00
2023-04-08T16:48:48.834Z,100.00
2023-04-08T16:51:17.689Z,100.00
2023-04-08T16:53:46.591Z,100.00
2023-04-08T16:56:17.181Z,100.00
2023-04-08T16:58:45.582Z,100.00
2023-04-08T17:01:16.640Z,100.00
2023-04-08T17:03:49.127Z,100.00
2023-04-08T17:06:20.577Z,100.00
2023-04-08T17:08:49.079Z,100.00
2023-04-08T17:11:17.971Z,100.00
2023-04-08T17:13:47.095Z,100.00
2023-04-08T17:16:17.638Z,100.00
2023-04-08T17:18:46.671Z,100.00
2023-04-08T17:21:16.057Z,100.00
2023-04-08T17:23:44.444Z,100.00
2023-04-08T17:26:13.178Z,100.00
2023-04-08T17:28:41.832Z,100.00
2023-04-08T17:31:11.187Z,100.00
2023-04-08T17:33:43.092Z,100.00
2023-04-08T17:36:12.388Z,100.00
2023-04-08T17:38:41.692Z,100.00
2023-04-08T17:41:16.363Z,100.00
2023-04-08T17:43:52.209Z,100.00
2023-04-08T17:46:22.023Z,100.00
2023-04-08T17:48:53.765Z,100.00
2023-04-08T17:51:23.751Z,100.00
2023-04-08T17:53:53.175Z,100.00
2023-04-08T17:56:24.868Z,100.00
2023-04-08T17:58:53.306Z,100.00
2023-04-08T18:01:30.584Z,100.00
2023-04-08T18:03:59.476Z,100.00
2023-04-08T18:06:28.450Z,100.00
2023-04-08T18:08:56.719Z,100.00
2023-04-08T18:11:30.514Z,100.00
2023-04-08T18:14:00.860Z,100.00
2023-04-08T18:16:29.806Z,100.00
2023-04-08T18:19:00.717Z,100.00
2023-04-08T18:21:35.013Z,100.00
2023-04-08T18:24:04.743Z,100.00
2023-04-08T18:26:33.204Z,100.00
2023-04-08T18:29:04.069Z,100.00
2023-04-08T18:31:32.532Z,100.00
2023-04-08T18:34:02.345Z,100.00
2023-04-08T18:36:30.622Z,100.00
2023-04-08T18:38:59.078Z,100.00
2023-04-08T18:41:29.506Z,100.00
2023-04-08T18:44:01.145Z,100.00
2023-04-08T18:46:30.696Z,100.00
2023-04-08T18:49:01.915Z,100.00
2023-04-08T18:51:30.927Z,100.00
2023-04-08T18:54:00.149Z,100.00
2023-04-08T18:56:29.175Z,100.00
2023-04-08T18:58:57.533Z,100.00
2023-04-08T19:01:26.141Z,100.00
2023-04-08T19:03:56.086Z,100.00
2023-04-08T19:06:24.642Z,100.00
2023-04-08T19:08:53.291Z,100.00
2023-04-08T19:11:27.168Z,100.00
2023-04-08T19:13:57.164Z,100.00
2023-04-08T19:16:26.538Z,100.00
2023-04-08T19:18:55.204Z,100.00
2023-04-08T19:21:25.379Z,100.00
2023-04-08T19:23:54.096Z,100.00
2023-04-08T19:26:22.782Z,100.00
2023-04-08T19:28:51.524Z,100.00
2023-04-08T19:31:21.744Z,100.00
2023-04-08T19:33:50.255Z,100.00
2023-04-08T19:36:19.508Z,100.00
2023-04-08T19:38:47.878Z,100.00
2023-04-08T19:41:18.225Z,100.00
2023-04-08T19:43:47.147Z,100.00
2023-04-08T19:46:18.493Z,100.00
2023-04-08T19:48:46.691Z,100.00
2023-04-08T19:51:22.656Z,100.00
2023-04-08T19:53:53.994Z,100.00
2023-04-08T19:56:22.446Z,100.00
2023-04-08T19:58:50.963Z,100.00
2023-04-08T20:01:19.640Z,100.00
2023-04-08T20:03:51.254Z,100.00
2023-04-08T20:06:20.186Z,100.00
2023-04-08T20:08:50.423Z,100.00
2023-04-08T20:11:19.715Z,100.00
2023-04-08T20:13:51.663Z,100.00
2023-04-08T20:16:20.914Z,100.00
2023-04-08T20:18:49.324Z,100.00
2023-04-08T20:21:18.721Z,100.00
2023-04-08T20:23:48.509Z,100.00
2023-04-08T20:26:16.911Z,100.00
2023-04-08T20:28:46.347Z,100.00
2023-04-08T20:31:16.292Z,100.00
2023-04-08T20:33:45.722Z,100.00
2023-04-08T20:36:14.690Z,100.00
2023-04-08T20:38:44.275Z,100.00
2023-04-08T20:41:20.481Z,100.00
2023-04-08T20:43:51.457Z,100.00
2023-04-08T20:46:20.965Z,100.00
2023-04-08T20:48:51.068Z,100.00
2023-04-08T20:51:19.307Z,100.00
2023-04-08T20:53:48.662Z,100.00
2023-04-08T20:56:17.009Z,100.00
2023-04-08T20:58:45.342Z,100.00
2023-04-08T21:01:14.319Z,100.00
2023-04-08T21:03:42.763Z,100.00
2023-04-08T21:06:22.128Z,100.00
2023-04-08T21:08:51.460Z,100.00
2023-04-08T21:11:20.004Z,100.00
2023-04-08T21:13:49.177Z,100.00
2023-04-08T21:16:19.772Z,100.00
2023-04-08T21:18:48.420Z,100.00
2023-04-08T21:21:19.952Z,100.00
2023-04-08T21:23:48.958Z,100.00
2023-04-08T21:26:17.844Z,100.00
2023-04-08T21:28:46.172Z,100.00
2023-04-08T21:31:14.524Z,100.00
2023-04-08T21:33:42.869Z,100.00
2023-04-08T21:36:11.436Z,100.00
2023-04-08T21:38:41.550Z,100.00
2023-04-08T21:41:09.824Z,100.00
2023-04-08T21:43:38.356Z,100.00
2023-04-08T21:46:09.834Z,100.00
2023-04-08T21:48:39.184Z,100.00
2023-04-08T21:51:08.736Z,100.00
2023-04-08T21:53:40.267Z,100.00
2023-04-08T21:56:08.543Z,100.00
2023-04-08T21:58:40.148Z,100.00
2023-04-08T22:01:08.554Z,100.00
2023-04-08T22:03:37.230Z,100.00
2023-04-08T22:06:10.903Z,100.00
2023-04-08T22:08:41.157Z,100.00
2023-04-08T22:11:10.736Z,100.00
2023-04-08T22:13:39.032Z,100.00
2023-04-08T22:16:08.169Z,100.00
2023-04-08T22:18:36.598Z,100.00
2023-04-08T22:21:04.899Z,100.00
2023-04-08T22:23:33.223Z,100.00
2023-04-08T22:26:01.399Z,100.00
2023-04-08T22:28:29.725Z,100.00
2023-04-08T22:30:57.961Z,100.00
2023-04-08T22:33:27.806Z,100.00
2023-04-08T22:35:57.554Z,100.00
2023-04-08T22:38:27.037Z,100.00
2023-04-08T22:40:55.553Z,100.00
2023-04-08T22:43:25.123Z,100.00
2023-04-08T22:45:53.484Z,100.00
2023-04-08T22:48:21.904Z,100.00
2023-04-08T22:50:50.269Z,100.00
2023-04-08T22:53:19.188Z,100.00
2023-04-08T22:55:47.451Z,100.00
2023-04-08T22:58:15.873Z,100.00
2023-04-08T23:00:45.046Z,100.00
2023-04-08T23:03:15.534Z,100.00
2023-04-08T23:05:44.466Z,100.00
2023-04-08T23:08:13.123Z,100.00
2023-04-08T23:10:41.533Z,100.00
2023-04-08T23:13:10.361Z,100.00
2023-04-08T23:15:38.745Z,100.00
2023-04-08T23:18:07.065Z,100.00
2023-04-08T23:20:35.646Z,100.00
2023-04-08T23:23:03.950Z,100.00
2023-04-08T23:25:36.392Z,100.00
2023-04-08T23:28:05.327Z,100.00
2023-04-08T23:30:34.428Z,100.00
2023-04-08T23:33:02.798Z,100.00
2023-04-08T23:35:31.360Z,100.00
2023-04-08T23:37:59.583Z,100.00
2023-04-08T23:40:28.060Z,100.00
2023-04-08T23:42:56.144Z,100.00
2023-04-08T23:45:24.247Z,100.00
2023-04-08T23:47:52.514Z,100.00
2023-04-08T23:50:22.932Z,100.00
2023-04-08T23:52:51.651Z,100.00
2023-04-08T23:55:21.081Z,100.00
2023-04-08T23:57:50.802Z,100.00
